Time;durP1;ratioP1;P1;durP2;ratioP2;P2;SDS_P1;SDS_P2;PMS_P1;PMS_P2;Temp;Humidity;BMP_temperature;BMP_pressure;BME280_temperature;BME280_humidity;BME280_pressure;Samples;Min_cycle;Max_cycle;Signal;HPM_P1;HPM_P2
2022/03/15 00:01:17;;;;;;;2.70;1.55;;;;;;;5.56;100.00;96098.44;4994007;28;20493;-58
2022/03/15 00:03:46;;;;;;;4.32;1.50;;;;;;;5.60;100.00;96112.94;4994416;28;20026;-57
2022/03/15 00:06:12;;;;;;;4.57;1.55;;;;;;;5.63;100.00;96122.31;4976386;28;20032;-58
2022/03/15 00:08:37;;;;;;;4.07;1.48;;;;;;;5.59;100.00;96135.22;4993865;28;20401;-56
2022/03/15 00:11:05;;;;;;;3.33;1.48;;;;;;;5.59;100.00;96142.38;4992697;28;20109;-54
2022/03/15 00:13:32;;;;;;;4.35;1.58;;;;;;;5.55;100.00;96130.53;4979968;28;20072;-57
2022/03/15 00:15:59;;;;;;;3.65;1.60;;;;;;;5.50;100.00;96147.09;5008927;28;20540;-54
2022/03/15 00:18:30;;;;;;;3.70;1.83;;;;;;;5.47;100.00;96140.38;4993859;28;20030;-56
2022/03/15 00:21:04;;;;;;;5.20;1.80;;;;;;;5.45;100.00;96144.25;4992541;28;20088;-55
2022/03/15 00:23:31;;;;;;;2.58;1.60;;;;;;;5.44;100.00;96139.97;5008886;28;20077;-56
2022/03/15 00:25:59;;;;;;;4.40;1.42;;;;;;;5.40;100.00;96147.50;4993658;28;20030;-57
2022/03/15 00:28:25;;;;;;;2.10;1.15;;;;;;;5.35;100.00;96146.50;4993617;28;20026;-58
2022/03/15 00:30:57;;;;;;;5.57;1.58;;;;;;;5.29;100.00;96150.78;5007466;28;20142;-59
2022/03/15 00:33:24;;;;;;;3.38;1.55;;;;;;;5.27;100.00;96146.72;4981260;28;20030;-58
2022/03/15 00:35:51;;;;;;;4.72;1.50;;;;;;;5.22;100.00;96139.38;4993321;28;20030;-56
2022/03/15 00:38:19;;;;;;;4.28;1.90;;;;;;;5.18;100.00;96149.56;4992978;28;20041;-58
2022/03/15 00:40:47;;;;;;;3.15;1.50;;;;;;;5.15;100.00;96131.41;4991996;28;20073;-61
2022/03/15 00:43:16;;;;;;;4.40;2.05;;;;;;;5.11;100.00;96124.88;4993424;28;20057;-57
2022/03/15 00:45:55;;;;;;;6.05;2.63;;;;;;;5.07;100.00;96104.22;4993253;28;20114;-61
2022/03/15 00:48:23;;;;;;;6.80;2.28;;;;;;;5.02;100.00;96094.22;4993252;28;20026;-59
2022/03/15 00:50:51;;;;;;;7.03;3.17;;;;;;;4.98;100.00;96081.56;4993155;28;20049;-55
2022/03/15 00:53:19;;;;;;;6.25;2.60;;;;;;;4.90;100.00;96071.97;4993281;28;20072;-58
2022/03/15 00:55:45;;;;;;;10.25;3.13;;;;;;;4.84;100.00;96064.81;4993193;28;20045;-56
2022/03/15 00:58:11;;;;;;;3.58;2.10;;;;;;;4.83;100.00;96064.00;4993307;28;20026;-55
2022/03/15 01:00:39;;;;;;;5.95;1.88;;;;;;;4.83;100.00;96049.91;4992970;28;20057;-59
2022/03/15 01:03:14;;;;;;;3.60;2.10;;;;;;;4.80;100.00;96032.56;4993081;28;20594;-54
2022/03/15 01:05:43;;;;;;;3.30;2.00;;;;;;;4.74;100.00;96024.59;4975441;28;20022;-58
2022/03/15 01:08:09;;;;;;;7.00;2.15;;;;;;;4.68;100.00;96004.22;4972352;28;20405;-55
2022/03/15 01:10:34;;;;;;;5.13;1.75;;;;;;;4.64;100.00;96009.91;5011751;28;20030;-58
2022/03/15 01:13:05;;;;;;;4.10;2.05;;;;;;;4.62;100.00;95998.69;5012654;28;20366;-55
2022/03/15 01:15:35;;;;;;;5.82;1.88;;;;;;;4.62;100.00;95993.38;4994964;28;20044;-53
2022/03/15 01:18:03;;;;;;;5.68;2.08;;;;;;;4.62;100.00;95988.06;5012450;28;20108;-55
2022/03/15 01:20:29;;;;;;;4.90;1.70;;;;;;;4.61;100.00;95988.28;5011100;28;20034;-57
2022/03/15 01:22:57;;;;;;;2.95;1.70;;;;;;;4.61;100.00;95981.13;5012523;28;20088;-54
2022/03/15 01:25:32;;;;;;;4.55;1.70;;;;;;;4.64;100.00;95964.81;5012462;28;20060;-57
2022/03/15 01:27:58;;;;;;;4.20;1.60;;;;;;;4.64;100.00;95962.16;4994706;28;20036;-56
2022/03/15 01:30:23;;;;;;;2.80;1.70;;;;;;;4.65;100.00;95955.00;5012176;28;20133;-55
2022/03/15 01:32:50;;;;;;;2.90;1.98;;;;;;;4.65;100.00;95953.16;4976914;28;20330;-58
2022/03/15 01:35:19;;;;;;;2.85;1.42;;;;;;;4.69;100.00;95950.13;4984403;28;20084;-58
2022/03/15 01:37:45;;;;;;;4.00;1.77;;;;;;;4.69;100.00;95964.19;5012316;28;20025;-59
2022/03/15 01:40:10;;;;;;;2.83;1.40;;;;;;;4.69;100.00;95968.69;5012236;28;20499;-58
2022/03/15 01:42:36;;;;;;;2.85;1.60;;;;;;;4.66;100.00;95967.25;5012479;28;20061;-59
2022/03/15 01:45:03;;;;;;;3.70;1.83;;;;;;;4.66;100.00;95962.75;5012411;28;20465;-57
2022/03/15 01:47:29;;;;;;;4.90;1.95;;;;;;;4.66;100.00;95951.31;5012125;28;20026;-62
2022/03/15 01:49:54;;;;;;;6.28;1.80;;;;;;;4.65;100.00;95953.16;5014099;28;20055;-58
2022/03/15 01:52:19;;;;;;;5.40;1.67;;;;;;;4.65;100.00;95963.78;5016158;28;20076;-53
2022/03/15 01:54:45;;;;;;;4.45;1.65;;;;;;;4.65;100.00;95961.13;5015841;28;20428;-59
2022/03/15 01:57:11;;;;;;;7.47;2.00;;;;;;;4.64;100.00;95978.06;5015977;28;20034;-54
2022/03/15 01:59:42;;;;;;;4.13;1.80;;;;;;;4.64;100.00;95977.25;5014726;28;20030;-54
2022/03/15 02:02:08;;;;;;;4.65;1.73;;;;;;;4.64;100.00;95977.25;5014711;28;20032;-54
2022/03/15 02:04:36;;;;;;;8.88;2.03;;;;;;;4.68;100.00;95962.56;4998295;28;20030;-54
2022/03/15 02:07:17;;;;;;;5.60;2.08;;;;;;;4.69;100.00;95947.47;5015873;28;20076;-54
2022/03/15 02:09:42;;;;;;;7.43;1.92;;;;;;;4.75;100.00;95938.66;4998216;28;20025;-54
2022/03/15 02:12:10;;;;;;;3.30;1.92;;;;;;;4.90;100.00;95937.41;5015785;28;20030;-56
2022/03/15 02:14:42;;;;;;;3.88;1.70;;;;;;;5.06;100.00;95962.69;5015688;28;20032;-54
2022/03/15 02:17:07;;;;;;;4.75;2.10;;;;;;;5.17;100.00;95977.16;5015733;28;20061;-53
2022/03/15 02:19:36;;;;;;;5.38;2.03;;;;;;;5.23;100.00;95990.44;4998120;28;20058;-54
2022/03/15 02:22:05;;;;;;;7.03;2.13;;;;;;;5.29;100.00;95995.91;4998009;28;20029;-58
2022/03/15 02:24:31;;;;;;;3.80;2.00;;;;;;;5.31;100.00;95993.84;5015490;28;20431;-53
2022/03/15 02:26:56;;;;;;;3.45;1.80;;;;;;;5.33;100.00;96000.63;5015524;28;20030;-57
2022/03/15 02:29:22;;;;;;;5.80;1.88;;;;;;;5.34;100.00;96014.72;5015185;28;20725;-56
2022/03/15 02:31:49;;;;;;;6.47;1.80;;;;;;;5.33;100.00;96005.94;5009317;28;20067;-59
2022/03/15 02:34:17;;;;;;;6.50;2.00;;;;;;;5.32;100.00;96006.97;4995806;28;20058;-57
2022/03/15 02:36:58;;;;;;;5.00;1.90;;;;;;;5.32;100.00;96012.25;4978422;28;20469;-58
2022/03/15 02:39:27;;;;;;;4.53;2.17;;;;;;;5.32;100.00;96008.75;4995578;28;20125;-61
2022/03/15 02:41:52;;;;;;;4.50;2.50;;;;;;;5.31;100.00;95999.16;4995884;28;20022;-58
2022/03/15 02:44:18;;;;;;;5.97;2.95;;;;;;;5.31;100.00;96007.13;4994385;28;20504;-59
2022/03/15 02:46:50;;;;;;;12.88;5.05;;;;;;;5.30;100.00;95998.34;4995649;28;20026;-58
2022/03/15 02:49:16;;;;;;;12.47;3.97;;;;;;;5.27;100.00;95990.81;4995760;28;20092;-60
2022/03/15 02:51:47;;;;;;;7.00;3.83;;;;;;;5.24;100.00;95984.09;4995522;28;20273;-55
2022/03/15 02:54:16;;;;;;;7.63;3.58;;;;;;;5.21;100.00;95984.50;4995422;28;20473;-55
2022/03/15 02:56:48;;;;;;;10.18;3.83;;;;;;;5.23;100.00;95969.19;4995736;28;20084;-55
2022/03/15 02:59:17;;;;;;;7.68;3.53;;;;;;;5.21;100.00;95962.44;4995362;28;20041;-53
2022/03/15 03:01:50;;;;;;;8.27;3.50;;;;;;;5.17;100.00;95967.34;4994816;28;20030;-58
2022/03/15 03:04:20;;;;;;;7.15;3.15;;;;;;;5.18;100.00;95963.66;4978232;28;20456;-54
2022/03/15 03:06:45;;;;;;;6.22;3.55;;;;;;;5.22;100.00;95966.72;4994362;28;20026;-54
2022/03/15 03:09:16;;;;;;;6.88;3.70;;;;;;;5.22;100.00;95959.59;5014735;28;20026;-56
2022/03/15 03:11:42;;;;;;;11.32;4.95;;;;;;;5.22;100.00;95956.09;5014727;28;20030;-57
2022/03/15 03:14:13;;;;;;;7.00;3.80;;;;;;;5.18;100.00;95953.03;5014478;28;20037;-53
2022/03/15 03:16:39;;;;;;;8.98;4.35;;;;;;;5.18;100.00;95942.41;5014633;28;20381;-56
2022/03/15 03:19:08;;;;;;;9.90;4.35;;;;;;;5.16;100.00;95936.50;5014520;28;20041;-56
2022/03/15 03:21:36;;;;;;;8.57;4.30;;;;;;;5.16;100.00;95935.69;5014510;28;20021;-53
2022/03/15 03:24:06;;;;;;;6.60;4.03;;;;;;;5.13;100.00;95921.00;5014575;28;20029;-54
2022/03/15 03:26:37;;;;;;;7.30;3.20;;;;;;;5.14;100.00;95913.84;5014119;28;20030;-57
2022/03/15 03:29:06;;;;;;;7.28;3.00;;;;;;;5.11;100.00;95899.16;4997577;28;20028;-56
2022/03/15 03:31:31;;;;;;;5.72;2.90;;;;;;;5.11;100.00;95901.00;5009976;28;20046;-53
2022/03/15 03:33:57;;;;;;;4.97;2.42;;;;;;;5.11;100.00;95899.16;4974514;28;20489;-54
2022/03/15 03:36:34;;;;;;;8.48;2.75;;;;;;;5.13;100.00;95898.94;4994741;28;20081;-59
2022/03/15 03:38:59;;;;;;;6.07;2.88;;;;;;;5.13;100.00;95902.41;4994477;28;20113;-56
2022/03/15 03:41:25;;;;;;;5.03;2.08;;;;;;;5.13;100.00;95899.75;4994499;28;20113;-60
2022/03/15 03:43:53;;;;;;;4.93;2.38;;;;;;;5.16;100.00;95898.50;4993170;28;20441;-58
2022/03/15 03:46:21;;;;;;;4.53;2.00;;;;;;;5.16;100.00;95907.28;4994353;28;20031;-59
2022/03/15 03:48:48;;;;;;;4.45;2.20;;;;;;;5.17;100.00;95905.44;4994314;28;20053;-58
2022/03/15 03:51:13;;;;;;;5.53;2.40;;;;;;;5.17;100.00;95892.97;4993257;28;20057;-55
2022/03/15 03:53:40;;;;;;;6.55;2.60;;;;;;;5.15;100.00;95884.41;4994142;28;20026;-55
2022/03/15 03:56:05;;;;;;;4.90;2.70;;;;;;;5.13;100.00;95885.66;4994270;28;20026;-55
2022/03/15 03:58:31;;;;;;;5.63;2.45;;;;;;;5.10;100.00;95873.63;4994089;28;20129;-56
2022/03/15 04:00:56;;;;;;;6.55;2.70;;;;;;;5.06;100.00;95868.94;4994053;28;20030;-55
2022/03/15 04:03:24;;;;;;;6.22;2.65;;;;;;;5.00;100.00;95859.16;4994148;28;20062;-57
2022/03/15 04:06:01;;;;;;;5.03;2.88;;;;;;;4.93;100.00;95851.22;4994106;28;20045;-58
2022/03/15 04:08:26;;;;;;;6.30;2.60;;;;;;;4.83;100.00;95864.13;4993891;28;20030;-56
2022/03/15 04:10:52;;;;;;;4.25;2.38;;;;;;;4.81;100.00;95872.31;4970514;28;20033;-55
2022/03/15 04:13:18;;;;;;;4.38;2.40;;;;;;;4.73;100.00;95861.91;4995174;28;20022;-57
2022/03/15 04:15:48;;;;;;;5.22;2.25;;;;;;;4.70;100.00;95875.59;5013470;28;20100;-55
2022/03/15 04:18:17;;;;;;;7.22;2.50;;;;;;;4.59;100.00;95882.38;5013509;28;20029;-57
2022/03/15 04:20:43;;;;;;;5.00;2.33;;;;;;;4.54;100.00;95882.16;5013258;28;20032;-56
2022/03/15 04:23:10;;;;;;;5.40;2.50;;;;;;;4.52;100.00;95892.16;5013354;28;20030;-55
2022/03/15 04:25:35;;;;;;;5.72;2.03;;;;;;;4.49;100.00;95910.34;5013283;28;20041;-58
2022/03/15 04:28:00;;;;;;;4.15;1.75;;;;;;;4.46;100.00;95910.75;5013280;28;20030;-60
2022/03/15 04:30:28;;;;;;;2.80;1.73;;;;;;;4.46;100.00;95914.22;5013019;28;20057;-58
2022/03/15 04:32:58;;;;;;;3.10;1.75;;;;;;;4.50;100.00;95927.88;4996664;28;20030;-58
2022/03/15 04:35:24;;;;;;;4.88;2.00;;;;;;;4.51;100.00;95927.69;4992236;28;20030;-58
2022/03/15 04:37:59;;;;;;;4.20;1.70;;;;;;;4.53;100.00;95935.44;4993545;28;20109;-58
2022/03/15 04:40:24;;;;;;;5.40;2.15;;;;;;;4.52;100.00;95945.22;4992026;28;20031;-63
2022/03/15 04:42:57;;;;;;;4.53;2.15;;;;;;;4.52;100.00;95963.78;4993532;28;20033;-59
2022/03/15 04:45:24;;;;;;;5.05;1.70;;;;;;;4.53;100.00;95975.22;4976140;28;20054;-61
2022/03/15 04:47:50;;;;;;;6.43;2.60;;;;;;;4.52;100.00;96000.94;4993269;28;20437;-60
2022/03/15 04:50:15;;;;;;;4.60;3.03;;;;;;;4.56;100.00;96009.31;4993196;28;20341;-58
2022/03/15 04:52:48;;;;;;;4.93;2.13;;;;;;;4.55;100.00;96034.19;4993250;28;20049;-59
2022/03/15 04:55:13;;;;;;;4.05;2.20;;;;;;;4.54;100.00;96045.84;4993152;28;20539;-59
2022/03/15 04:57:39;;;;;;;3.65;2.00;;;;;;;4.54;100.00;96048.47;4993524;28;20034;-59
2022/03/15 05:00:08;;;;;;;4.93;2.45;;;;;;;4.56;100.00;96070.34;4993034;28;20034;-59
2022/03/15 05:02:40;;;;;;;6.95;2.63;;;;;;;4.52;100.00;96077.06;4976023;28;20057;-59
2022/03/15 05:05:09;;;;;;;5.05;2.40;;;;;;;4.49;100.00;96086.25;4992909;28;20034;-60
2022/03/15 05:07:35;;;;;;;3.97;2.22;;;;;;;4.45;100.00;96111.56;4993108;28;20037;-58
2022/03/15 05:12:50;;;;;;;4.63;2.33;;;;;;;4.39;100.00;96122.97;4993252;28;20037;-59
2022/03/15 05:15:16;;;;;;;3.67;2.10;;;;;;;4.35;100.00;96135.81;4992877;28;20080;-59
2022/03/15 05:17:44;;;;;;;7.90;2.30;;;;;;;4.36;100.00;96149.88;4992895;28;20034;-59
2022/03/15 05:20:17;;;;;;;4.13;2.20;;;;;;;4.35;100.00;96157.03;4992754;28;20475;-58
2022/03/15 05:22:49;;;;;;;4.88;2.15;;;;;;;4.30;100.00;96167.41;4992719;28;20034;-57
2022/03/15 05:25:14;;;;;;;5.13;2.10;;;;;;;4.29;100.00;96170.25;4975178;28;20054;-55
2022/03/15 05:27:41;;;;;;;3.85;2.10;;;;;;;4.27;100.00;96167.81;4975303;28;20066;-58
2022/03/15 05:30:13;;;;;;;4.13;2.22;;;;;;;4.27;100.00;96181.06;4977048;28;20058;-62
2022/03/15 05:32:42;;;;;;;5.22;2.60;;;;;;;4.26;100.00;96183.91;4982304;28;20029;-63
2022/03/15 05:35:07;;;;;;;5.20;2.33;;;;;;;4.21;100.00;96184.50;4999637;28;20026;-62
2022/03/15 05:37:39;;;;;;;7.25;2.40;;;;;;;4.20;100.00;96197.97;5015139;28;20026;-63
2022/03/15 05:40:05;;;;;;;5.70;2.40;;;;;;;4.19;100.00;96210.41;5000155;28;20026;-64
2022/03/15 05:42:30;;;;;;;4.15;2.60;;;;;;;4.14;100.00;96207.53;5015918;28;20398;-64
2022/03/15 05:44:59;;;;;;;4.28;2.60;;;;;;;4.11;100.00;96215.88;4999835;28;20033;-63
2022/03/15 05:47:27;;;;;;;3.92;2.80;;;;;;;4.10;100.00;96226.66;5000070;28;20557;-64
2022/03/15 05:49:52;;;;;;;4.60;2.40;;;;;;;4.09;100.00;96233.81;4998379;28;20036;-64
2022/03/15 05:52:18;;;;;;;6.82;2.95;;;;;;;4.07;100.00;96234.00;4997122;28;20380;-64
2022/03/15 05:54:43;;;;;;;4.20;2.50;;;;;;;4.05;100.00;96238.69;4996591;28;20037;-64
2022/03/15 05:57:09;;;;;;;6.35;2.97;;;;;;;4.04;100.00;96233.59;5012675;28;20393;-64
2022/03/15 05:59:34;;;;;;;5.57;2.72;;;;;;;4.02;100.00;96239.09;4995573;28;20082;-62
2022/03/15 06:02:00;;;;;;;5.80;2.63;;;;;;;4.02;100.00;96232.97;5010484;28;20030;-63
2022/03/15 06:04:32;;;;;;;4.97;2.58;;;;;;;4.03;100.00;96245.22;4992808;28;20560;-59
2022/03/15 06:06:57;;;;;;;5.88;3.28;;;;;;;4.03;100.00;96242.56;4992254;28;20039;-60
2022/03/15 06:09:29;;;;;;;4.65;2.70;;;;;;;4.03;100.00;96242.56;4992420;28;20492;-59
2022/03/15 06:11:57;;;;;;;6.97;2.78;;;;;;;4.02;100.00;96233.78;4992326;28;20037;-61
2022/03/15 06:14:23;;;;;;;4.28;2.70;;;;;;;4.03;100.00;96239.91;4992402;28;20500;-59
2022/03/15 06:16:51;;;;;;;5.55;2.97;;;;;;;4.03;100.00;96243.38;4992356;28;20022;-58
2022/03/15 06:19:17;;;;;;;6.00;3.03;;;;;;;4.01;100.00;96245.38;5007362;28;20030;-59
2022/03/15 06:21:43;;;;;;;7.05;3.10;;;;;;;4.00;100.00;96248.22;4989269;28;20363;-58
2022/03/15 06:24:09;;;;;;;4.15;2.53;;;;;;;3.98;100.00;96253.72;4990453;28;20030;-59
2022/03/15 06:26:39;;;;;;;6.13;2.72;;;;;;;3.97;100.00;96254.75;4991501;28;20049;-56
2022/03/15 06:29:05;;;;;;;6.20;3.05;;;;;;;3.99;100.00;96254.53;4996031;28;20030;-58
2022/03/15 06:31:33;;;;;;;4.65;2.47;;;;;;;4.01;100.00;96252.50;4989946;28;20074;-61
2022/03/15 06:33:59;;;;;;;4.63;2.55;;;;;;;4.03;100.00;96253.97;4987526;28;20105;-62
2022/03/15 06:36:25;;;;;;;4.57;2.50;;;;;;;4.04;100.00;96249.50;4994497;28;20076;-61
2022/03/15 06:38:57;;;;;;;5.00;2.63;;;;;;;4.04;100.00;96249.50;4993628;28;20035;-59
2022/03/15 06:41:22;;;;;;;7.57;2.78;;;;;;;4.05;100.00;96249.28;4991881;28;20068;-60
2022/03/15 06:43:48;;;;;;;6.22;2.60;;;;;;;4.06;100.00;96242.97;4988350;28;20027;-59
2022/03/15 06:46:20;;;;;;;6.60;3.10;;;;;;;4.07;100.00;96249.91;4989687;28;20117;-59
2022/03/15 06:48:45;;;;;;;3.63;2.50;;;;;;;4.08;100.00;96240.94;4977178;28;20077;-59
2022/03/15 06:51:10;;;;;;;6.30;2.95;;;;;;;4.10;100.00;96243.41;4991351;28;20030;-58
2022/03/15 06:53:40;;;;;;;4.72;2.90;;;;;;;4.12;100.00;96248.50;4990663;28;20026;-60
2022/03/15 06:56:06;;;;;;;9.40;3.25;;;;;;;4.13;100.00;96247.50;4992491;28;20105;-62
2022/03/15 06:58:31;;;;;;;4.50;2.58;;;;;;;4.15;100.00;96250.78;5006370;28;20093;-58
2022/03/15 07:00:57;;;;;;;4.60;2.75;;;;;;;4.15;100.00;96254.25;5006979;28;20041;-59
2022/03/15 07:03:22;;;;;;;4.57;3.00;;;;;;;4.15;100.00;96248.94;4972559;28;20027;-59
2022/03/15 07:05:47;;;;;;;4.13;2.50;;;;;;;4.18;100.00;96250.38;5000816;28;20121;-60
2022/03/15 07:08:16;;;;;;;4.40;3.08;;;;;;;4.19;100.00;96242.22;4996881;28;20041;-58
2022/03/15 07:10:44;;;;;;;6.15;3.33;;;;;;;4.22;100.00;96228.56;4992635;28;20404;-58
2022/03/15 07:13:10;;;;;;;6.22;2.90;;;;;;;4.22;100.00;96223.25;4978530;28;20358;-58
2022/03/15 07:15:35;;;;;;;8.13;3.10;;;;;;;4.26;100.00;96210.44;4999118;28;20021;-59
2022/03/15 07:18:01;;;;;;;5.32;2.85;;;;;;;4.28;100.00;96201.28;4996493;28;20037;-58
2022/03/15 07:20:27;;;;;;;3.08;2.08;;;;;;;4.30;100.00;96196.56;5004208;28;20033;-62
2022/03/15 07:22:56;;;;;;;5.45;3.05;;;;;;;4.34;100.00;96189.88;4997987;28;20030;-63
2022/03/15 07:25:22;;;;;;;6.00;3.30;;;;;;;4.37;100.00;96183.34;4994304;28;20041;-60
2022/03/15 07:27:51;;;;;;;5.05;2.83;;;;;;;4.39;100.00;96180.50;4993278;28;20120;-60
2022/03/15 07:30:17;;;;;;;8.98;2.92;;;;;;;4.41;100.00;96166.00;4978152;28;20088;-62
2022/03/15 07:32:45;;;;;;;4.45;2.72;;;;;;;4.44;100.00;96156.81;4957629;28;20030;-62
2022/03/15 07:35:13;;;;;;;4.97;3.08;;;;;;;4.46;100.00;96147.69;4993849;28;20073;-59
2022/03/15 07:37:56;;;;;;;5.82;3.20;;;;;;;4.47;100.00;96137.88;4993696;28;20029;-62
2022/03/15 07:40:22;;;;;;;6.40;3.00;;;;;;;4.48;100.00;96132.38;4995118;28;20034;-63
2022/03/15 07:42:48;;;;;;;8.18;3.65;;;;;;;4.48;100.00;96135.03;4990804;28;20030;-61
2022/03/15 07:45:23;;;;;;;4.18;2.83;;;;;;;4.49;100.00;96118.09;5009253;28;20367;-60
2022/03/15 07:47:48;;;;;;;5.82;3.30;;;;;;;4.52;100.00;96120.31;4992535;28;20038;-62
2022/03/15 07:50:18;;;;;;;4.80;2.83;;;;;;;4.54;100.00;96109.50;4987000;28;20081;-61
2022/03/15 07:52:53;;;;;;;6.72;3.20;;;;;;;4.53;100.00;96110.53;4993398;28;20061;-62
2022/03/15 07:55:21;;;;;;;6.53;3.28;;;;;;;4.55;100.00;96100.53;5006004;28;20034;-60
2022/03/15 07:57:58;;;;;;;5.38;3.20;;;;;;;4.56;100.00;96096.88;4993559;28;20028;-61
2022/03/15 08:00:23;;;;;;;5.95;2.97;;;;;;;4.57;100.00;96094.03;4992886;28;20026;-61
2022/03/15 08:02:52;;;;;;;6.85;3.25;;;;;;;4.59;100.00;96096.47;4996895;28;20482;-61
2022/03/15 08:05:18;;;;;;;8.95;3.15;;;;;;;4.61;100.00;96087.28;4990537;28;20034;-60
2022/03/15 08:07:43;;;;;;;4.30;2.95;;;;;;;4.63;100.00;96074.63;4992412;28;20026;-59
2022/03/15 08:10:17;;;;;;;6.05;3.20;;;;;;;4.68;100.00;96065.25;4992687;28;20112;-59
2022/03/15 08:12:46;;;;;;;5.65;3.10;;;;;;;4.72;100.00;96054.00;5001740;28;20477;-60
2022/03/15 08:15:11;;;;;;;7.57;3.28;;;;;;;4.75;100.00;96045.63;4991947;28;20054;-62
2022/03/15 08:17:38;;;;;;;6.13;3.15;;;;;;;4.80;100.00;96040.53;4985493;28;20073;-58
2022/03/15 08:20:05;;;;;;;4.35;2.95;;;;;;;4.84;100.00;96038.28;4975237;28;20026;-58
2022/03/15 08:22:31;;;;;;;6.47;3.20;;;;;;;4.88;100.00;96037.69;4991430;28;20034;-59
2022/03/15 08:24:57;;;;;;;5.95;3.00;;;;;;;4.89;100.00;96027.88;4982597;28;20030;-56
2022/03/15 08:27:22;;;;;;;4.32;2.88;;;;;;;4.92;100.00;96030.94;4957265;28;20037;-59
2022/03/15 08:29:54;;;;;;;8.20;3.20;;;;;;;4.92;100.00;96032.78;4973718;28;20058;-59
2022/03/15 08:32:22;;;;;;;6.53;3.00;;;;;;;4.92;100.00;96024.81;4992253;28;20026;-61
2022/03/15 08:34:48;;;;;;;4.95;2.97;;;;;;;4.89;100.00;96023.38;4993098;28;20495;-62
2022/03/15 08:37:14;;;;;;;7.88;2.88;;;;;;;4.89;100.00;96020.72;5008532;28;20026;-62
2022/03/15 08:39:39;;;;;;;5.55;2.72;;;;;;;4.89;100.00;96004.81;4992346;28;20391;-59
2022/03/15 08:42:05;;;;;;;6.72;2.88;;;;;;;4.92;100.00;95995.59;4975635;28;20441;-61
2022/03/15 08:44:30;;;;;;;4.90;2.70;;;;;;;4.98;100.00;96000.06;5006521;28;20058;-62
2022/03/15 08:46:59;;;;;;;5.07;3.17;;;;;;;5.02;100.00;95984.56;4991152;28;20592;-60
2022/03/15 08:49:24;;;;;;;5.97;3.45;;;;;;;5.04;100.00;95979.84;4992006;28;20367;-61
2022/03/15 08:51:59;;;;;;;4.80;2.90;;;;;;;5.07;100.00;95982.09;4992305;28;20026;-60
2022/03/15 08:54:31;;;;;;;6.05;2.97;;;;;;;4.97;100.00;95987.81;4992054;28;20033;-60
2022/03/15 08:56:57;;;;;;;7.72;3.78;;;;;;;4.95;100.00;95992.53;4992289;28;20500;-61
2022/03/15 08:59:25;;;;;;;7.95;3.25;;;;;;;4.96;100.00;95999.47;4991490;28;20105;-62
2022/03/15 09:01:53;;;;;;;8.07;3.40;;;;;;;5.01;100.00;96001.50;4958691;28;20026;-61
2022/03/15 09:04:22;;;;;;;8.23;3.42;;;;;;;5.07;100.00;95992.69;4991749;28;20030;-60
2022/03/15 09:06:47;;;;;;;6.47;3.40;;;;;;;5.10;100.00;96001.09;4974810;28;20026;-60
2022/03/15 09:09:42;;;;;;;6.30;3.60;;;;;;;5.16;100.00;95994.94;4991923;28;20041;-58
2022/03/15 09:12:11;;;;;;;9.50;3.42;;;;;;;5.20;100.00;95998.78;4994724;28;20479;-63
2022/03/15 09:14:39;;;;;;;8.45;3.40;;;;;;;5.25;100.00;95987.56;4992044;28;20034;-59
2022/03/15 09:17:06;;;;;;;6.78;3.17;;;;;;;5.28;100.00;95987.13;4992549;28;20552;-62
2022/03/15 09:19:32;;;;;;;7.78;3.53;;;;;;;5.37;100.00;95977.09;4990711;28;20129;-62
2022/03/15 09:22:01;;;;;;;4.85;3.33;;;;;;;5.43;100.00;95978.91;4992030;28;20022;-59
2022/03/15 09:24:26;;;;;;;6.38;3.53;;;;;;;5.47;100.00;95978.28;4991912;28;20080;-59
2022/03/15 09:26:55;;;;;;;7.97;4.25;;;;;;;5.52;100.00;95978.44;4974113;28;20385;-59
2022/03/15 09:29:24;;;;;;;7.13;3.35;;;;;;;5.59;100.00;95980.28;4991886;28;20116;-58
2022/03/15 09:31:49;;;;;;;4.72;3.20;;;;;;;5.63;100.00;95966.34;4992282;28;20077;-63
2022/03/15 09:34:17;;;;;;;6.43;3.20;;;;;;;5.65;100.00;95968.81;4992563;28;20426;-62
2022/03/15 09:36:44;;;;;;;8.27;3.63;;;;;;;5.68;100.00;95969.19;4992326;28;20022;-63
2022/03/15 09:39:10;;;;;;;6.80;3.35;;;;;;;5.69;100.00;95967.34;4989174;28;20430;-60
2022/03/15 09:41:39;;;;;;;5.10;3.20;;;;;;;5.70;100.00;95953.84;4984577;28;20097;-61
2022/03/15 09:44:08;;;;;;;6.88;3.40;;;;;;;5.77;100.00;95941.34;5003308;28;20402;-59
2022/03/15 09:46:40;;;;;;;5.22;3.20;;;;;;;5.83;100.00;95942.31;4989934;28;20033;-62
2022/03/15 09:49:09;;;;;;;7.97;3.13;;;;;;;5.88;100.00;95929.19;4990645;28;20030;-62
2022/03/15 09:51:36;;;;;;;4.85;3.40;;;;;;;5.94;100.00;95919.56;4991562;28;20022;-62
2022/03/15 09:54:06;;;;;;;5.43;3.40;;;;;;;5.98;100.00;95912.81;4974831;28;20037;-59
2022/03/15 09:56:34;;;;;;;5.38;2.90;;;;;;;6.01;100.00;95905.22;4992574;28;20030;-63
2022/03/15 09:59:00;;;;;;;7.43;3.38;;;;;;;6.00;100.00;95903.59;4991653;28;20031;-60
2022/03/15 10:01:25;;;;;;;5.57;3.45;;;;;;;5.97;100.00;95904.03;4991639;28;20090;-62
2022/03/15 10:03:57;;;;;;;7.55;3.50;;;;;;;6.02;100.00;95895.38;4974382;28;20097;-61
2022/03/15 10:06:25;;;;;;;5.40;2.92;;;;;;;6.07;100.00;95885.72;4974055;28;20385;-59
2022/03/15 10:08:53;;;;;;;7.32;3.13;;;;;;;6.12;100.00;95879.75;4958182;28;20040;-60
2022/03/15 10:11:23;;;;;;;5.88;3.08;;;;;;;6.18;100.00;95873.53;4992785;28;20129;-61
2022/03/15 10:13:49;;;;;;;4.63;2.80;;;;;;;6.22;100.00;95880.09;5010120;28;20131;-59
2022/03/15 10:16:21;;;;;;;4.38;3.03;;;;;;;6.25;100.00;95873.50;4995308;28;20472;-59
2022/03/15 10:18:55;;;;;;;6.32;2.92;;;;;;;6.26;100.00;95867.16;4995330;28;20093;-60
2022/03/15 10:21:44;;;;;;;4.93;3.17;;;;;;;6.28;100.00;95865.06;4995090;28;20076;-56
2022/03/15 10:24:10;;;;;;;7.43;2.88;;;;;;;6.31;100.00;95860.16;4995218;28;20069;-62
2022/03/15 10:26:39;;;;;;;6.18;3.10;;;;;;;6.38;100.00;95854.75;4995149;28;20544;-62
2022/03/15 10:29:13;;;;;;;4.38;3.30;;;;;;;6.44;100.00;95845.09;4995197;28;20037;-60
2022/03/15 10:31:39;;;;;;;7.05;2.97;;;;;;;6.52;100.00;95842.16;4972991;28;20047;-62
2022/03/15 10:34:10;;;;;;;5.90;2.85;;;;;;;6.57;100.00;95824.47;4975552;28;20027;-60
2022/03/15 10:36:47;;;;;;;4.82;3.08;;;;;;;6.65;100.00;95823.38;4957143;28;20023;-60
2022/03/15 10:39:15;;;;;;;6.75;2.83;;;;;;;6.72;100.00;95810.78;4973149;28;20027;-61
2022/03/15 10:41:52;;;;;;;4.53;2.67;;;;;;;6.78;100.00;95807.22;4968472;28;20034;-61
2022/03/15 10:44:37;;;;;;;5.15;2.88;;;;;;;6.82;100.00;95799.59;4955506;28;20031;-62
2022/03/15 10:47:15;;;;;;;7.35;3.63;;;;;;;6.88;100.00;95788.88;4970556;28;20105;-59
2022/03/15 10:49:59;;;;;;;4.70;3.45;;;;;;;6.93;100.00;95794.34;4973307;28;20445;-61
2022/03/15 10:52:36;;;;;;;6.18;2.72;;;;;;;7.01;100.00;95781.75;4974859;28;20030;-60
2022/03/15 10:55:40;;;;;;;3.97;2.70;;;;;;;7.12;100.00;95779.13;4955548;28;20109;-61
2022/03/15 10:58:06;;;;;;;5.60;3.50;;;;;;;7.11;100.00;95774.03;4963749;28;20035;-61
2022/03/15 11:00:35;;;;;;;5.55;3.10;;;;;;;7.08;100.00;95761.19;4973081;28;20037;-59
2022/03/15 11:03:02;;;;;;;7.50;3.75;;;;;;;7.08;100.00;95766.50;4972062;28;20057;-62
2022/03/15 11:05:27;;;;;;;6.18;3.15;;;;;;;7.08;100.00;95759.34;4969170;28;20023;-63
2022/03/15 11:07:53;;;;;;;4.63;3.17;;;;;;;7.13;100.00;95762.13;4973141;28;20027;-60
2022/03/15 11:10:19;;;;;;;5.07;2.88;;;;;;;7.19;100.00;95753.22;4972783;28;20023;-63
2022/03/15 11:12:58;;;;;;;7.40;3.42;;;;;;;7.22;100.00;95762.63;4969555;28;20516;-62
2022/03/15 11:15:30;;;;;;;5.78;3.72;;;;;;;7.28;100.00;95761.72;4970103;28;20019;-62
2022/03/15 11:17:58;;;;;;;6.05;3.75;;;;;;;7.34;100.00;95757.31;4973219;28;20019;-60
2022/03/15 11:20:25;;;;;;;5.40;3.95;;;;;;;7.41;100.00;95756.19;4974176;28;20058;-60
2022/03/15 11:22:52;;;;;;;7.53;4.05;;;;;;;7.48;100.00;95754.22;4974774;28;20394;-60
2022/03/15 11:25:21;;;;;;;7.10;4.03;;;;;;;7.54;100.00;95741.84;4958357;28;20439;-61
2022/03/15 11:27:51;;;;;;;8.40;3.85;;;;;;;7.50;100.00;95712.16;4971395;28;20190;-58
2022/03/15 11:30:22;;;;;;;6.53;3.88;;;;;;;7.49;100.00;95710.53;4991442;23;20355;-66
2022/03/15 11:32:49;;;;;;;7.00;4.38;;;;;;;7.51;100.00;95713.78;4974420;28;20476;-66
2022/03/15 11:35:19;;;;;;;6.47;3.38;;;;;;;7.54;100.00;95702.66;4975232;28;20158;-66
2022/03/15 11:38:07;;;;;;;5.18;3.67;;;;;;;7.53;100.00;95692.22;4975453;28;20484;-66
2022/03/15 11:40:33;;;;;;;5.43;3.28;;;;;;;7.44;100.00;95696.28;4981127;28;20026;-65
2022/03/15 11:43:23;;;;;;;6.18;3.83;;;;;;;7.55;100.00;95690.13;4994687;28;20068;-66